EST,Max TemperatureF,Mean TemperatureF,Min TemperatureF,Max Dew PointF,MeanDew PointF,Min DewpointF,Max Humidity, Mean Humidity, Min Humidity, Max Sea Level PressureIn, Mean Sea Level PressureIn, Min Sea Level PressureIn, Max VisibilityMiles, Mean VisibilityMiles, Min VisibilityMiles, Max Wind SpeedMPH, Mean Wind SpeedMPH, Max Gust SpeedMPH,PrecipitationIn, CloudCover, Events, WindDirDegrees
2000-12-1,28,24,19,27,20,8,93,79,61,30.24,30.08,29.96,10,5,1,13,7,20,0.03,8,Snow,294
2000-12-2,21,18,15,10,8,5,77,67,54,30.49,30.36,30.22,10,9,2,14,9,24,0.00,8,Snow,305
2000-12-3,28,16,5,8,4,-2,87,64,35,30.53,30.46,30.38,10,10,10,9,2,,0.00,1,,280
2000-12-4,36,21,3,16,10,-1,87,68,34,30.35,30.27,30.14,10,10,9,8,4,,0.00,0,,286
2000-12-5,36,18,1,25,16,-3,88,76,36,30.12,29.78,29.65,10,7,0,16,4,25,0.01,6,Fog-Snow,234
2000-12-6,23,12,1,19,6,-2,93,72,45,30.00,29.82,29.66,10,7,0,18,9,30,0.09,4,Fog-Snow,279
2000-12-7,21,11,1,16,7,-8,92,77,53,29.96,29.69,29.56,10,6,0,16,3,25,0.01,6,Fog-Snow,299
2000-12-8,10,-2,-14,-4,-10,-19,87,70,44,30.19,30.10,29.98,10,9,2,7,3,,0.00,3,,258
2000-12-9,12,-1,-14,-1,-10,-20,84,64,45,30.49,30.35,30.18,10,10,10,12,3,21,0.00,1,,301
2000-12-10,23,7,-9,13,1,-14,87,73,50,30.51,30.39,30.21,10,10,9,0,0,,0.00,2,,-1
2000-12-11,34,26,19,28,23,14,92,85,75,30.23,30.14,29.85,10,7,4,4,0,,0.00,8,Snow,340
2000-12-12,39,23,6,36,20,-2,96,77,62,30.33,29.60,29.15,10,6,2,23,11,36,0.38,7,Rain-Snow,248
2000-12-13,17,9,1,5,-2,-6,80,64,39,30.76,30.64,30.42,10,10,10,9,4,18,0.00,1,,305
2000-12-14,26,19,12,23,16,4,96,88,67,30.60,30.19,29.94,10,3,0,12,4,18,0.16,8,Fog-Snow,326
2000-12-15,23,9,-5,13,6,-9,96,81,63,30.65,30.51,30.19,10,9,3,9,3,,0.00,2,Snow,328
2000-12-16,37,17,-2,34,18,-6,93,85,69,30.66,30.47,30.21,10,9,4,15,4,23,0.13,4,Rain-Snow,169
2000-12-17,55,45,35,52,41,33,100,94,83,30.17,29.49,28.82,10,6,1,21,8,31,1.31,8,Rain-Thunderstorm,199
2000-12-18,33,25,17,32,23,10,96,79,66,29.98,29.39,28.95,10,5,1,23,12,41,0.18,7,Snow,270
2000-12-19,21,15,9,21,15,6,96,88,77,30.04,29.91,29.77,10,8,2,6,2,,0.01,5,Snow,310
2000-12-20,23,18,12,21,13,5,100,83,67,30.09,29.62,29.42,10,2,0,18,7,26,0.49,8,Fog-Snow,298
2000-12-21,19,8,-4,10,3,-8,91,80,62,30.35,30.23,30.11,10,10,10,8,3,,0.00,2,,353
2000-12-22,23,8,-7,18,7,-11,100,82,68,30.14,29.95,29.81,10,8,2,13,2,21,0.00,6,Snow,317
2000-12-23,16,10,3,9,5,-4,85,73,62,30.36,30.11,29.93,10,6,0,20,9,24,0.00,6,Snow,293
2000-12-24,15,2,-11,10,1,-16,92,80,59,30.38,30.14,29.92,10,7,2,5,1,,0.00,6,Snow,321
2000-12-25,14,4,-5,10,0,-13,92,77,60,30.28,30.04,29.87,10,4,1,18,5,30,0.01,8,Snow,287
2000-12-26,12,4,-4,5,-6,-12,73,64,53,30.22,30.04,29.93,10,9,3,23,16,34,0.00,4,,280
2000-12-27,17,12,8,2,1,-2,70,61,49,29.91,29.84,29.78,10,10,10,15,10,24,0.00,6,,283
2000-12-28,10,6,3,6,1,-1,87,77,70,29.96,29.77,29.68,10,3,0,9,6,16,0.02,8,Snow,298
2000-12-29,21,15,9,12,9,5,85,80,68,30.04,29.97,29.89,10,7,2,7,4,,0.00,8,Snow,339
2000-12-30,25,14,3,25,17,1,100,87,77,30.03,29.70,29.35,10,4,0,12,4,,0.01,8,Fog-Snow,5
2000-12-31,27,24,21,25,21,15,93,85,78,29.65,29.36,29.20,10,4,1,17,8,28,0.06,8,Snow,294